createdAt,value
2023-02-02T00:02:00.204Z,3.20
2023-02-02T00:04:36.101Z,3.00
2023-02-02T00:07:05.289Z,2.97
2023-02-02T00:09:32.856Z,2.65
2023-02-02T00:12:00.469Z,2.88
2023-02-02T00:14:27.119Z,3.00
2023-02-02T00:16:55.210Z,3.08
2023-02-02T00:19:27.624Z,2.60
2023-02-02T00:21:55.116Z,3.25
2023-02-02T00:24:22.669Z,2.75
2023-02-02T00:26:52.063Z,2.83
2023-02-02T00:29:28.018Z,2.92
2023-02-02T00:31:54.980Z,2.95
2023-02-02T00:34:22.293Z,3.17
2023-02-02T00:36:49.763Z,3.05
2023-02-02T00:39:19.255Z,2.53
2023-02-02T00:41:46.586Z,2.47
2023-02-02T00:44:32.148Z,2.47
2023-02-02T00:46:58.829Z,2.83
2023-02-02T00:49:25.544Z,2.72
2023-02-02T00:51:52.184Z,2.80
2023-02-02T00:54:18.768Z,2.72
2023-02-02T00:56:45.370Z,2.67
2023-02-02T00:59:12.515Z,2.50
2023-02-02T01:01:39.224Z,2.90
2023-02-02T01:04:06.160Z,2.88
2023-02-02T01:06:32.935Z,2.83
2023-02-02T01:08:59.514Z,2.22
2023-02-02T01:11:26.094Z,3.33
2023-02-02T01:13:52.765Z,2.90
2023-02-02T01:16:22.448Z,3.03
2023-02-02T01:18:50.059Z,2.60
2023-02-02T01:21:16.756Z,2.28
2023-02-02T01:23:43.383Z,3.05
2023-02-02T01:26:11.630Z,2.55
2023-02-02T01:28:38.585Z,2.40
2023-02-02T01:31:08.048Z,2.58
2023-02-02T01:33:34.700Z,3.20
2023-02-02T01:36:06.412Z,2.53
2023-02-02T01:38:33.589Z,2.45
2023-02-02T01:41:00.656Z,2.65
2023-02-02T01:43:52.883Z,3.08
2023-02-02T01:46:27.927Z,2.50
2023-02-02T01:49:15.706Z,2.33
2023-02-02T01:51:54.703Z,2.50
2023-02-02T01:54:35.248Z,3.05
2023-02-02T01:57:26.186Z,2.50
2023-02-02T01:59:54.816Z,2.30
2023-02-02T02:02:21.637Z,1.92
2023-02-02T02:04:50.442Z,2.55
2023-02-02T02:07:17.065Z,2.08
2023-02-02T02:09:43.811Z,2.28
2023-02-02T02:12:14.465Z,2.80
2023-02-02T02:15:02.458Z,2.35
2023-02-02T02:17:39.943Z,2.50
2023-02-02T02:23:25.390Z,2.35
2023-02-02T02:26:27.153Z,2.60
2023-02-02T02:29:35.676Z,2.22
2023-02-02T02:32:52.545Z,2.35
2023-02-02T02:35:37.022Z,3.13
2023-02-02T02:38:12.633Z,2.47
2023-02-02T02:40:49.587Z,2.47
2023-02-02T02:43:24.536Z,2.42
2023-02-02T02:45:51.230Z,2.65
2023-02-02T02:48:17.774Z,2.80
2023-02-02T02:50:44.375Z,2.60
2023-02-02T02:53:24.120Z,2.63
2023-02-02T02:56:06.783Z,2.40
2023-02-02T02:58:54.425Z,2.25
2023-02-02T03:01:37.893Z,2.53
2023-02-02T03:04:14.579Z,2.28
2023-02-02T03:07:00.657Z,2.10
2023-02-02T03:09:32.914Z,2.25
2023-02-02T03:11:59.912Z,2.72
2023-02-02T03:14:26.640Z,3.30
2023-02-02T03:16:53.458Z,3.05
2023-02-02T03:19:20.181Z,2.90
2023-02-02T03:21:46.854Z,3.30
2023-02-02T03:24:13.493Z,3.15
2023-02-02T03:26:40.179Z,3.40
2023-02-02T03:29:06.813Z,3.63
2023-02-02T03:31:33.524Z,3.42
2023-02-02T03:34:00.141Z,3.80
2023-02-02T03:36:28.022Z,3.70
2023-02-02T03:38:54.706Z,3.75
2023-02-02T03:41:21.556Z,4.00
2023-02-02T03:43:48.091Z,3.90
2023-02-02T03:46:15.102Z,3.45
2023-02-02T03:48:41.688Z,3.05
2023-02-02T03:51:09.967Z,3.28
2023-02-02T03:53:36.616Z,3.33
2023-02-02T03:56:03.266Z,3.08
2023-02-02T03:58:29.938Z,2.97
2023-02-02T04:04:20.294Z,3.28
2023-02-02T04:06:46.876Z,3.78
2023-02-02T04:09:13.436Z,4.57
2023-02-02T04:11:40.243Z,4.13
2023-02-02T04:14:07.236Z,4.10
2023-02-02T04:16:37.104Z,4.60
2023-02-02T04:19:06.517Z,4.07
2023-02-02T04:21:33.068Z,3.97
2023-02-02T04:23:59.738Z,4.38
2023-02-02T04:26:26.823Z,4.68
2023-02-02T04:28:53.809Z,4.15
2023-02-02T04:31:20.615Z,4.47
2023-02-02T04:33:47.303Z,4.05
2023-02-02T04:36:13.871Z,4.38
2023-02-02T04:38:40.484Z,4.05
2023-02-02T04:41:13.954Z,4.15
2023-02-02T04:43:40.629Z,3.97
2023-02-02T04:46:07.454Z,4.28
2023-02-02T04:48:34.189Z,4.30
2023-02-02T04:51:02.203Z,4.25
2023-02-02T04:53:29.383Z,5.03
2023-02-02T04:55:56.416Z,4.30
2023-02-02T04:58:23.037Z,4.68
2023-02-02T05:00:49.588Z,4.95
2023-02-02T05:03:16.453Z,4.85
2023-02-02T05:05:42.952Z,4.90
2023-02-02T05:08:12.047Z,3.90
2023-02-02T05:10:42.238Z,3.85
2023-02-02T05:13:09.527Z,4.32
2023-02-02T05:15:36.063Z,4.32
2023-02-02T05:18:02.742Z,4.70
2023-02-02T05:20:29.231Z,4.00
2023-02-02T05:22:55.736Z,4.15
2023-02-02T05:25:22.706Z,3.83
2023-02-02T05:27:49.369Z,4.22
2023-02-02T05:30:16.533Z,4.47
2023-02-02T05:32:43.232Z,3.97
2023-02-02T05:35:10.157Z,3.97
2023-02-02T05:37:36.736Z,3.72
2023-02-02T05:40:04.170Z,4.38
2023-02-02T05:42:30.766Z,4.03
2023-02-02T05:44:57.241Z,4.47
2023-02-02T05:47:23.876Z,4.35
2023-02-02T05:49:50.475Z,4.13
2023-02-02T05:52:21.403Z,3.80
2023-02-02T05:54:48.086Z,3.80
2023-02-02T05:57:14.588Z,3.67
2023-02-02T05:59:41.188Z,3.95
2023-02-02T06:02:07.934Z,4.13
2023-02-02T06:04:34.483Z,3.85
2023-02-02T06:07:01.037Z,3.58
2023-02-02T06:09:27.770Z,3.90
2023-02-02T06:11:54.314Z,3.92
2023-02-02T06:14:21.189Z,4.03
2023-02-02T06:16:47.999Z,3.67
2023-02-02T06:19:14.564Z,2.83
2023-02-02T06:21:41.077Z,3.03
2023-02-02T06:24:07.758Z,3.20
2023-02-02T06:26:34.278Z,3.58
2023-02-02T06:29:00.840Z,4.00
2023-02-02T06:31:27.606Z,4.32
2023-02-02T06:33:56.432Z,2.97
2023-02-02T06:36:25.251Z,3.60
2023-02-02T06:38:53.527Z,4.28
2023-02-02T06:41:20.574Z,3.95
2023-02-02T06:43:48.223Z,3.40
2023-02-02T06:46:15.760Z,3.47
2023-02-02T06:48:42.992Z,3.25
2023-02-02T06:51:09.709Z,3.08
2023-02-02T06:53:36.356Z,3.55
2023-02-02T06:56:06.243Z,3.20
2023-02-02T06:58:34.010Z,3.85
2023-02-02T07:01:10.151Z,3.35
2023-02-02T07:03:36.833Z,2.72
2023-02-02T07:06:13.105Z,2.95
2023-02-02T07:08:39.732Z,2.97
2023-02-02T07:11:14.155Z,3.22
2023-02-02T07:13:42.877Z,2.35
2023-02-02T07:16:15.465Z,2.88
2023-02-02T07:18:48.348Z,2.80
2023-02-02T07:21:18.631Z,2.95
2023-02-02T07:23:45.671Z,2.50
2023-02-02T07:26:14.280Z,2.75
2023-02-02T07:28:41.367Z,2.55
2023-02-02T07:31:21.711Z,2.58
2023-02-02T07:33:49.396Z,3.53
2023-02-02T07:36:18.637Z,2.80
2023-02-02T07:38:47.091Z,2.72
2023-02-02T07:41:14.925Z,2.70
2023-02-02T07:43:41.517Z,2.92
2023-02-02T07:46:10.559Z,3.42
2023-02-02T07:48:37.512Z,3.05
2023-02-02T07:51:06.618Z,3.67
2023-02-02T07:53:34.104Z,3.10
2023-02-02T07:56:12.469Z,2.65
2023-02-02T07:58:39.672Z,2.65
2023-02-02T08:01:08.632Z,2.60
2023-02-02T08:03:36.220Z,3.28
2023-02-02T08:06:10.509Z,3.08
2023-02-02T08:08:37.172Z,3.00
2023-02-02T08:11:03.788Z,3.28
2023-02-02T08:13:30.442Z,2.67
2023-02-02T08:16:00.217Z,2.78
2023-02-02T08:18:26.787Z,2.80
2023-02-02T08:20:53.479Z,2.90
2023-02-02T08:23:23.698Z,3.17
2023-02-02T08:25:50.977Z,2.60
2023-02-02T08:28:18.806Z,2.83
2023-02-02T08:30:46.087Z,2.53
2023-02-02T08:33:13.009Z,2.45
2023-02-02T08:35:43.883Z,2.95
2023-02-02T08:38:10.534Z,2.88
2023-02-02T08:40:37.115Z,3.50
2023-02-02T08:43:04.173Z,3.15
2023-02-02T08:46:03.817Z,2.85
2023-02-02T08:48:19.914Z,2.70
2023-02-02T08:50:55.866Z,2.83
2023-02-02T08:53:23.560Z,2.90
2023-02-02T08:56:01.348Z,2.75
2023-02-02T08:58:28.707Z,2.55
2023-02-02T09:00:55.374Z,2.75
2023-02-02T09:03:21.931Z,3.33
2023-02-02T09:05:48.617Z,2.90
2023-02-02T09:08:15.257Z,2.70
2023-02-02T09:10:41.805Z,3.15
2023-02-02T09:13:08.458Z,2.83
2023-02-02T09:15:35.182Z,3.03
2023-02-02T09:18:01.706Z,3.00
2023-02-02T09:20:28.277Z,3.08
2023-02-02T09:22:57.720Z,3.25
2023-02-02T09:25:28.401Z,2.38
2023-02-02T09:27:54.980Z,3.08
2023-02-02T09:30:21.819Z,2.10
2023-02-02T09:32:51.285Z,2.67
2023-02-02T09:35:18.011Z,2.83
2023-02-02T09:37:45.460Z,3.22
2023-02-02T09:40:19.362Z,2.85
2023-02-02T09:43:01.465Z,3.70
2023-02-02T09:45:39.254Z,2.72
2023-02-02T09:48:19.389Z,2.70
2023-02-02T09:50:51.076Z,2.45
2023-02-02T09:53:29.242Z,3.20
2023-02-02T09:56:00.512Z,2.78
2023-02-02T09:58:39.892Z,2.42
2023-02-02T10:01:11.260Z,2.88
2023-02-02T10:03:43.972Z,2.40
2023-02-02T10:06:16.316Z,2.80
2023-02-02T10:08:49.070Z,3.22
2023-02-02T10:11:24.817Z,3.28
2023-02-02T10:13:56.426Z,3.00
2023-02-02T10:16:24.840Z,2.50
2023-02-02T10:19:04.779Z,2.78
2023-02-02T10:21:46.322Z,2.75
2023-02-02T10:24:23.093Z,3.05
2023-02-02T10:26:55.638Z,2.67
2023-02-02T10:29:22.226Z,2.53
2023-02-02T10:31:48.914Z,2.83
2023-02-02T10:34:18.282Z,2.60
2023-02-02T10:36:55.018Z,2.40
2023-02-02T10:39:41.822Z,3.00
2023-02-02T10:42:30.219Z,3.05
2023-02-02T10:45:04.085Z,2.50
2023-02-02T10:47:33.766Z,2.88
2023-02-02T10:50:19.061Z,2.88
2023-02-02T10:52:50.316Z,2.33
2023-02-02T10:55:35.735Z,2.80
2023-02-02T10:58:11.321Z,2.70
2023-02-02T11:00:51.418Z,2.83
2023-02-02T11:03:21.239Z,2.42
2023-02-02T11:06:06.675Z,2.17
2023-02-02T11:08:35.067Z,2.28
2023-02-02T11:11:19.642Z,2.85
2023-02-02T11:14:10.000Z,2.90
2023-02-02T11:16:43.788Z,2.78
2023-02-02T11:19:17.178Z,3.08
2023-02-02T11:22:01.487Z,4.70
2023-02-02T11:24:36.824Z,2.60
2023-02-02T11:27:08.409Z,3.05
2023-02-02T11:29:48.973Z,2.95
2023-02-02T11:32:34.344Z,2.22
2023-02-02T11:35:04.148Z,1.83
2023-02-02T11:37:35.861Z,2.58
2023-02-02T11:40:24.914Z,2.40
2023-02-02T11:42:53.011Z,2.60
2023-02-02T11:45:29.311Z,2.30
2023-02-02T11:48:01.643Z,4.53
2023-02-02T11:50:28.890Z,2.38
2023-02-02T11:52:56.001Z,2.92
2023-02-02T11:55:27.755Z,2.70
2023-02-02T11:58:20.181Z,2.28
2023-02-02T12:00:48.752Z,3.47
2023-02-02T12:03:33.652Z,2.85
2023-02-02T12:06:02.139Z,2.97
2023-02-02T12:08:29.675Z,2.63
2023-02-02T12:11:00.144Z,2.08
2023-02-02T12:13:26.598Z,2.72
2023-02-02T12:16:15.001Z,2.10
2023-02-02T12:19:19.396Z,2.50
2023-02-02T12:22:02.955Z,3.25
2023-02-02T12:27:11.874Z,2.25
2023-02-02T12:29:57.331Z,2.30
2023-02-02T12:32:47.427Z,2.72
2023-02-02T12:35:48.254Z,2.55
2023-02-02T12:38:43.578Z,2.35
2023-02-02T12:42:11.444Z,1.77
2023-02-02T12:44:54.513Z,1.85
2023-02-02T12:47:58.340Z,3.00
2023-02-02T12:50:41.277Z,1.75
2023-02-02T12:53:17.120Z,2.03
2023-02-02T12:56:33.053Z,2.45
2023-02-02T12:59:47.141Z,2.30
2023-02-02T13:02:25.988Z,1.92
2023-02-02T13:07:51.505Z,1.85
2023-02-02T13:10:30.676Z,2.20
2023-02-02T13:13:01.561Z,2.28
2023-02-02T13:15:37.312Z,1.83
2023-02-02T13:18:14.109Z,2.38
2023-02-02T13:20:52.931Z,2.28
2023-02-02T13:23:27.525Z,1.92
2023-02-02T13:26:01.370Z,2.28
2023-02-02T13:28:43.504Z,1.90
2023-02-02T13:31:19.877Z,2.22
2023-02-02T13:33:53.278Z,2.47
2023-02-02T13:36:28.559Z,2.55
2023-02-02T13:38:58.571Z,2.15
2023-02-02T13:41:26.302Z,1.90
2023-02-02T13:44:03.998Z,2.15
2023-02-02T13:46:43.284Z,1.98
2023-02-02T13:49:21.998Z,1.98
2023-02-02T13:52:27.093Z,1.50
2023-02-02T13:55:12.438Z,1.55
2023-02-02T13:57:38.958Z,1.65
2023-02-02T14:00:19.255Z,1.73
2023-02-02T14:02:56.661Z,2.15
2023-02-02T14:05:43.585Z,2.00
2023-02-02T14:08:20.487Z,1.63
2023-02-02T14:10:52.977Z,1.55
2023-02-02T14:13:41.268Z,1.45
2023-02-02T14:16:20.563Z,2.00
2023-02-02T14:18:50.195Z,1.20
2023-02-02T14:21:32.478Z,1.45
2023-02-02T14:24:05.172Z,1.50
2023-02-02T14:26:50.418Z,1.08
2023-02-02T14:29:32.382Z,1.23
2023-02-02T14:32:21.618Z,1.25
2023-02-02T14:34:49.315Z,1.65
2023-02-02T14:37:25.453Z,1.75
2023-02-02T14:40:07.344Z,1.10
2023-02-02T14:43:01.790Z,1.25
2023-02-02T14:45:29.966Z,1.20
2023-02-02T14:48:01.905Z,1.25
2023-02-02T14:50:32.894Z,1.40
2023-02-02T14:53:06.832Z,1.20
2023-02-02T14:55:36.899Z,1.00
2023-02-02T14:58:06.480Z,1.13
2023-02-02T15:00:35.238Z,1.20
2023-02-02T15:03:46.993Z,2.30
2023-02-02T15:06:32.152Z,1.45
2023-02-02T15:09:21.016Z,1.75
2023-02-02T15:12:02.748Z,1.92
2023-02-02T15:14:51.681Z,2.85
2023-02-02T15:17:20.225Z,2.25
2023-02-02T15:20:10.256Z,1.35
2023-02-02T15:22:58.260Z,1.38
2023-02-02T15:25:31.142Z,1.42
2023-02-02T15:28:11.295Z,1.60
2023-02-02T15:30:44.029Z,1.55
2023-02-02T15:33:42.186Z,1.42
2023-02-02T15:36:25.755Z,1.00
2023-02-02T15:41:22.272Z,1.25
2023-02-02T15:43:48.924Z,1.40
2023-02-02T15:46:24.380Z,1.42
2023-02-02T15:49:33.187Z,1.60
2023-02-02T15:52:23.080Z,1.73
2023-02-02T15:54:58.189Z,1.20
2023-02-02T15:57:29.794Z,1.45
2023-02-02T15:59:57.022Z,1.77
2023-02-02T16:02:41.079Z,1.35
2023-02-02T16:05:47.547Z,1.10
2023-02-02T16:08:19.554Z,1.05
2023-02-02T16:10:49.381Z,1.63
2023-02-02T16:13:28.102Z,1.25
2023-02-02T16:16:00.415Z,1.25
2023-02-02T16:18:27.028Z,1.70
2023-02-02T16:20:54.669Z,2.00
2023-02-02T16:23:34.484Z,1.20
2023-02-02T16:26:03.194Z,1.10
2023-02-02T16:28:29.971Z,1.10
2023-02-02T16:31:00.030Z,1.92
2023-02-02T16:33:33.356Z,1.52
2023-02-02T16:35:59.908Z,1.33
2023-02-02T16:38:33.791Z,1.50
2023-02-02T16:41:03.443Z,1.60
2023-02-02T16:43:30.459Z,1.67
2023-02-02T16:46:00.324Z,1.83
2023-02-02T16:48:32.845Z,1.52
2023-02-02T16:51:17.871Z,1.60
2023-02-02T16:53:47.482Z,1.83
2023-02-02T16:56:40.312Z,1.60
2023-02-02T16:59:19.261Z,1.63
2023-02-02T17:01:50.035Z,1.38
2023-02-02T17:04:28.203Z,1.30
2023-02-02T17:06:58.160Z,1.33
2023-02-02T17:09:40.878Z,1.48
2023-02-02T17:12:32.128Z,1.98
2023-02-02T17:15:05.771Z,1.70
2023-02-02T17:17:32.336Z,1.50
2023-02-02T17:19:58.916Z,1.80
2023-02-02T17:22:27.895Z,1.45
2023-02-02T17:24:54.675Z,1.70
2023-02-02T17:27:34.268Z,1.70
2023-02-02T17:30:04.762Z,1.25
2023-02-02T17:32:31.256Z,1.50
2023-02-02T17:34:57.889Z,1.63
2023-02-02T17:37:24.666Z,1.08
2023-02-02T17:39:51.469Z,1.45
2023-02-02T17:42:28.492Z,1.92
2023-02-02T17:44:54.982Z,1.90
2023-02-02T17:47:21.531Z,1.48
2023-02-02T17:49:48.319Z,1.70
2023-02-02T17:52:14.810Z,1.67
2023-02-02T17:54:41.286Z,2.10
2023-02-02T17:57:07.895Z,2.15
2023-02-02T17:59:34.386Z,2.20
2023-02-02T18:02:01.667Z,1.92
2023-02-02T18:04:28.694Z,2.53
2023-02-02T18:06:55.211Z,2.25
2023-02-02T18:09:21.700Z,2.20
2023-02-02T18:11:49.903Z,2.20
2023-02-02T18:14:16.477Z,1.75
2023-02-02T18:16:43.010Z,2.15
2023-02-02T18:19:10.504Z,2.22
2023-02-02T18:21:37.547Z,2.25
2023-02-02T18:24:04.456Z,2.40
2023-02-02T18:26:32.730Z,2.08
2023-02-02T18:28:59.525Z,2.38
2023-02-02T18:31:27.073Z,2.30
2023-02-02T18:33:54.541Z,2.45
2023-02-02T18:36:23.587Z,2.67
2023-02-02T18:38:51.378Z,2.47
2023-02-02T18:41:19.519Z,2.55
2023-02-02T18:43:46.005Z,2.90
2023-02-02T18:46:15.059Z,3.08
2023-02-02T18:48:42.560Z,2.75
2023-02-02T18:51:16.036Z,2.70
2023-02-02T18:53:44.127Z,3.42
2023-02-02T18:56:12.422Z,3.45
2023-02-02T18:58:39.843Z,3.30
2023-02-02T19:01:08.497Z,3.10
2023-02-02T19:03:36.696Z,3.55
2023-02-02T19:06:23.541Z,2.47
2023-02-02T19:08:50.195Z,2.85
2023-02-02T19:11:22.785Z,3.65
2023-02-02T19:13:49.715Z,3.97
2023-02-02T19:16:26.569Z,4.28
2023-02-02T19:19:17.372Z,4.03
2023-02-02T19:21:44.016Z,3.97
2023-02-02T19:24:14.051Z,2.80
2023-02-02T19:26:45.422Z,3.22
2023-02-02T19:29:23.325Z,2.80
2023-02-02T19:32:03.094Z,4.03
2023-02-02T19:34:29.924Z,3.58
2023-02-02T19:36:56.457Z,3.33
2023-02-02T19:39:29.255Z,3.03
2023-02-02T19:41:59.188Z,3.35
2023-02-02T19:44:31.012Z,3.20
2023-02-02T19:46:57.897Z,3.15
2023-02-02T19:49:32.192Z,3.17
2023-02-02T19:51:59.687Z,3.33
2023-02-02T19:54:39.336Z,3.40
2023-02-02T19:57:25.425Z,3.80
2023-02-02T19:59:52.965Z,2.90
2023-02-02T20:02:38.662Z,3.03
2023-02-02T20:05:11.365Z,3.40
2023-02-02T20:07:39.114Z,3.25
2023-02-02T20:10:19.425Z,2.85
2023-02-02T20:12:46.296Z,3.20
2023-02-02T20:15:33.032Z,3.20
2023-02-02T20:18:01.751Z,3.10
2023-02-02T20:20:53.141Z,3.15
2023-02-02T20:23:49.008Z,2.85
2023-02-02T20:26:48.384Z,2.97
2023-02-02T20:29:17.524Z,2.40
2023-02-02T20:31:45.462Z,2.97
2023-02-02T20:34:30.568Z,2.85
2023-02-02T20:37:22.805Z,2.97
2023-02-02T20:40:00.276Z,2.75
2023-02-02T20:42:27.216Z,2.80
2023-02-02T20:44:54.237Z,2.38
2023-02-02T20:47:21.443Z,1.85
2023-02-02T20:49:48.388Z,2.13
2023-02-02T20:52:24.210Z,2.10
2023-02-02T20:54:52.229Z,2.30
2023-02-02T20:57:19.184Z,2.40
2023-02-02T20:59:45.919Z,1.70
2023-02-02T21:02:18.965Z,2.05
2023-02-02T21:04:49.833Z,2.17
2023-02-02T21:07:18.695Z,1.73
2023-02-02T21:09:46.212Z,2.08
2023-02-02T21:12:13.335Z,2.38
2023-02-02T21:14:40.065Z,2.53
2023-02-02T21:17:14.889Z,2.13
2023-02-02T21:19:42.778Z,2.30
2023-02-02T21:22:09.277Z,1.98
2023-02-02T21:24:35.773Z,2.25
2023-02-02T21:27:04.601Z,2.20
2023-02-02T21:29:32.644Z,1.92
2023-02-02T21:32:02.462Z,2.95
2023-02-02T21:34:30.263Z,2.22
2023-02-02T21:36:58.217Z,2.25
2023-02-02T21:39:36.650Z,2.00
2023-02-02T21:42:09.063Z,2.67
2023-02-02T21:44:37.795Z,2.45
2023-02-02T21:47:30.867Z,2.25
2023-02-02T21:50:01.390Z,2.25
2023-02-02T21:52:33.787Z,2.50
2023-02-02T21:55:06.477Z,1.88
2023-02-02T21:57:37.193Z,1.98
2023-02-02T22:00:32.533Z,2.58
2023-02-02T22:02:59.944Z,1.60
2023-02-02T22:05:34.044Z,1.70
2023-02-02T22:08:01.697Z,1.90
2023-02-02T22:10:38.940Z,2.17
2023-02-02T22:13:13.881Z,2.15
2023-02-02T22:15:41.809Z,1.90
2023-02-02T22:18:23.044Z,1.92
2023-02-02T22:20:51.364Z,2.00
2023-02-02T22:23:20.578Z,2.08
2023-02-02T22:25:49.803Z,1.73
2023-02-02T22:28:29.745Z,1.92
2023-02-02T22:30:56.837Z,2.15
2023-02-02T22:33:23.570Z,1.58
2023-02-02T22:35:50.904Z,2.13
2023-02-02T22:38:19.678Z,1.80
2023-02-02T22:40:47.426Z,1.70
2023-02-02T22:43:16.295Z,1.52
2023-02-02T22:45:43.652Z,2.08
2023-02-02T22:48:11.443Z,1.70
2023-02-02T22:50:38.102Z,1.75
2023-02-02T22:53:05.080Z,1.73
2023-02-02T22:55:32.429Z,1.63
2023-02-02T22:57:59.052Z,1.80
2023-02-02T23:00:28.254Z,1.80
2023-02-02T23:02:55.983Z,1.92
2023-02-02T23:05:23.949Z,1.48
2023-02-02T23:07:50.978Z,1.42
2023-02-02T23:10:20.369Z,2.00
2023-02-02T23:12:47.164Z,1.40
2023-02-02T23:15:14.440Z,1.27
2023-02-02T23:17:41.573Z,1.85
2023-02-02T23:20:10.868Z,1.50
2023-02-02T23:22:37.417Z,1.63
2023-02-02T23:25:04.669Z,1.77
2023-02-02T23:27:31.409Z,1.55
2023-02-02T23:29:57.911Z,1.50
2023-02-02T23:32:24.568Z,1.40
2023-02-02T23:34:51.217Z,1.55
2023-02-02T23:37:17.870Z,1.52
2023-02-02T23:39:44.566Z,1.60
2023-02-02T23:42:11.216Z,1.17
2023-02-02T23:44:37.713Z,1.60
2023-02-02T23:47:04.867Z,1.70
2023-02-02T23:49:32.935Z,1.70
2023-02-02T23:51:59.790Z,1.55
2023-02-02T23:54:27.031Z,1.55
2023-02-02T23:56:53.669Z,1.48
2023-02-02T23:59:20.154Z,1.80
